Ora, Mississippi
Current Conditions -  °F | °C
As of 11:35 AM on Thursday 23 Oct 2014 (Local Time) from KPIB Reporting Station
Clear Clear  
Wind Chill: 66°   Ceiling: Unl
Heat Index: 66°   Visibility: 10mi
Dew Point: 43°   Wind: 5mph
Humidity: 43%   Direction: 40°NE
Pressure: 30.16"   Gusts: NA
Location:  31.6692°N, 89.543°W
Report Text: KPIB 231635Z AUTO 04004KT 10SM CLR 19/06 A3016 RMK AO1
Loading
Personal Weather Stations






























Interactive Weather Map
Tropical Storm Tracking
New forecast layout! Learn more

10-Day Weather Forecast

Advertisements
Track Severe Weather on mobile